createdAt,value
2018-03-23T00:00:02.818Z,24.60
2018-03-23T00:01:02.784Z,23.40
2018-03-23T00:02:02.828Z,24.60
2018-03-23T00:03:02.761Z,25.20
2018-03-23T00:04:02.743Z,24.80
2018-03-23T00:05:02.781Z,25.40
2018-03-23T00:06:02.705Z,26.30
2018-03-23T00:07:02.696Z,26.70
2018-03-23T00:08:02.727Z,23.40
2018-03-23T00:09:02.762Z,25.40
2018-03-23T00:10:02.626Z,24.30
2018-03-23T00:11:02.558Z,26.80
2018-03-23T00:12:02.595Z,24.70
2018-03-23T00:13:02.578Z,25.30
2018-03-23T00:14:02.521Z,25.40
2018-03-23T00:15:02.591Z,24.70
2018-03-23T00:16:02.522Z,26.60
2018-03-23T00:17:02.456Z,25.30
2018-03-23T00:18:02.496Z,24.10
2018-03-23T00:19:02.386Z,23.70
2018-03-23T00:20:02.375Z,23.10
2018-03-23T00:21:02.385Z,25.20
2018-03-23T00:22:02.336Z,23.70
2018-03-23T00:23:02.316Z,23.70
2018-03-23T00:24:02.370Z,24.70
2018-03-23T00:25:02.310Z,24.80
2018-03-23T00:26:02.258Z,23.50
2018-03-23T00:27:02.241Z,25.90
2018-03-23T00:28:02.214Z,24.70
2018-03-23T00:29:02.204Z,24.50
2018-03-23T00:30:02.218Z,24.80
2018-03-23T00:31:02.140Z,24.50
2018-03-23T00:32:02.190Z,23.70
2018-03-23T00:33:02.208Z,25.50
2018-03-23T00:34:02.103Z,25.70
2018-03-23T00:35:02.044Z,27.40
2018-03-23T00:36:02.033Z,23.50
2018-03-23T00:37:02.066Z,25.20
2018-03-23T00:38:01.981Z,25.10
2018-03-23T00:39:01.949Z,28.20
2018-03-23T00:40:01.952Z,25.40
2018-03-23T00:41:01.911Z,24.90
2018-03-23T00:42:01.946Z,26.10
2018-03-23T00:43:01.907Z,24.90
2018-03-23T00:44:01.898Z,26.00
2018-03-23T00:45:01.876Z,25.70
2018-03-23T00:46:01.869Z,25.50
2018-03-23T00:47:01.824Z,25.30
2018-03-23T00:48:01.810Z,25.90
2018-03-23T00:49:01.803Z,26.20
2018-03-23T00:50:01.770Z,25.10
2018-03-23T00:51:01.752Z,25.00
2018-03-23T00:52:01.717Z,28.40
2018-03-23T00:53:01.699Z,26.50
2018-03-23T00:54:01.692Z,25.30
2018-03-23T00:55:01.643Z,28.70
2018-03-23T00:56:01.616Z,26.00
2018-03-23T00:57:01.590Z,27.50
2018-03-23T00:58:01.605Z,27.80
2018-03-23T00:59:01.563Z,26.30
2018-03-23T01:00:01.597Z,26.90
2018-03-23T01:01:01.552Z,30.40
2018-03-23T01:02:01.495Z,28.80
2018-03-23T01:03:01.501Z,29.40
2018-03-23T01:04:01.470Z,29.50
2018-03-23T01:05:01.436Z,29.30
2018-03-23T01:06:01.421Z,29.60
2018-03-23T01:07:01.428Z,29.60
2018-03-23T01:08:01.342Z,30.70
2018-03-23T01:09:01.334Z,30.30
2018-03-23T01:10:01.312Z,31.40
2018-03-23T01:11:01.295Z,35.50
2018-03-23T01:12:01.274Z,35.90
2018-03-23T01:13:01.301Z,37.80
2018-03-23T01:14:01.249Z,38.90
2018-03-23T01:15:01.280Z,37.60
2018-03-23T01:16:01.197Z,35.40
2018-03-23T01:17:01.150Z,38.10
2018-03-23T01:18:01.108Z,41.70
2018-03-23T01:19:01.138Z,40.40
2018-03-23T01:20:01.060Z,42.90
2018-03-23T01:21:01.098Z,41.80
2018-03-23T01:22:01.060Z,40.90
2018-03-23T01:23:01.047Z,43.70
2018-03-23T01:24:01.025Z,40.00
2018-03-23T01:25:01.020Z,43.70
2018-03-23T01:26:00.960Z,43.40
2018-03-23T01:27:00.984Z,41.80
2018-03-23T01:28:00.939Z,40.60
2018-03-23T01:29:00.914Z,43.30
2018-03-23T01:30:00.875Z,45.20
2018-03-23T01:31:00.825Z,39.70
2018-03-23T01:32:00.860Z,42.20
2018-03-23T01:34:23.588Z,42.20
2018-03-23T01:35:23.392Z,41.10
2018-03-23T01:36:23.360Z,45.00
2018-03-23T01:38:46.607Z,41.00
2018-03-23T01:39:46.409Z,41.50
2018-03-23T01:40:46.517Z,40.10
2018-03-23T01:41:46.519Z,40.90
2018-03-23T01:42:46.279Z,41.20
2018-03-23T01:45:09.328Z,44.20
2018-03-23T01:46:09.490Z,43.90
2018-03-23T01:47:09.462Z,38.70
2018-03-23T01:48:09.347Z,39.60
2018-03-23T01:49:09.053Z,41.70
2018-03-23T01:50:09.069Z,44.70
2018-03-23T01:51:18.421Z,41.10
